Alameda, New Mexico
Current Conditions -  °F | °C
As of 1:35 AM on Friday 28 Nov 2014 (Local Time) from KAEG Reporting Station
Clear Clear  
Wind Chill: 29°   Ceiling: Unl
Heat Index: 29°   Visibility: 10mi
Dew Point: 15°   Wind: 0mph
Humidity: 56%   Direction: NA
Pressure: 30.32"   Gusts: NA
Location:  35.1991°N, 106.662°W
Report Text: KAEG 280835Z AUTO 00000KT 10SM CLR M02/M10 A3032 RMK AO2 T10191096
Loading
Personal Weather Stations






























Interactive Weather Map New forecast layout! Learn more

10-Day Weather Forecast

Advertisements
Track Severe Weather on mobile